createdAt,value
2019-04-12T00:00:57.135Z,7.46
2019-04-12T00:01:57.143Z,7.37
2019-04-12T00:03:50.045Z,7.39
2019-04-12T00:04:50.048Z,7.32
2019-04-12T00:06:42.948Z,7.35
2019-04-12T00:07:42.957Z,7.32
2019-04-12T00:09:35.856Z,7.43
2019-04-12T00:10:35.859Z,7.30
2019-04-12T00:12:28.768Z,7.28
2019-04-12T00:13:28.766Z,7.35
2019-04-12T00:15:21.661Z,7.24
2019-04-12T00:16:21.669Z,7.24
2019-04-12T00:18:14.931Z,7.27
2019-04-12T00:19:14.574Z,7.24
2019-04-12T00:21:07.474Z,7.24
2019-04-12T00:22:07.482Z,7.32
2019-04-12T00:24:00.386Z,7.32
2019-04-12T00:25:00.385Z,7.27
2019-04-12T00:26:53.323Z,7.21
2019-04-12T00:27:53.291Z,7.30
2019-04-12T00:29:46.195Z,7.30
2019-04-12T00:30:46.195Z,7.23
2019-04-12T00:32:39.129Z,7.32
2019-04-12T00:33:39.100Z,7.30
2019-04-12T00:35:32.000Z,7.34
2019-04-12T00:36:32.008Z,7.24
2019-04-12T00:38:26.958Z,7.24
2019-04-12T00:39:29.538Z,7.21
2019-04-12T00:41:17.806Z,7.31
2019-04-12T00:42:17.815Z,7.27
2019-04-12T00:44:10.718Z,7.17
2019-04-12T00:45:10.724Z,7.30
2019-04-12T00:47:03.619Z,7.30
2019-04-12T00:48:03.629Z,7.25
2019-04-12T00:49:56.528Z,7.25
2019-04-12T00:50:56.529Z,7.15
2019-04-12T00:52:49.452Z,7.13
2019-04-12T00:53:49.435Z,7.10
2019-04-12T00:55:42.332Z,7.10
2019-04-12T00:56:46.465Z,7.10
2019-04-12T00:58:35.243Z,7.03
2019-04-12T00:59:35.244Z,6.91
2019-04-12T01:01:28.142Z,6.98
2019-04-12T01:02:28.153Z,6.97
2019-04-12T01:04:21.055Z,6.95
2019-04-12T01:05:21.059Z,6.97
2019-04-12T01:07:13.955Z,6.85
2019-04-12T01:08:13.963Z,6.98
2019-04-12T01:10:06.941Z,6.97
2019-04-12T01:11:06.899Z,6.94
2019-04-12T01:12:59.784Z,6.92
2019-04-12T01:13:59.767Z,6.97
2019-04-12T01:15:52.662Z,7.02
2019-04-12T01:16:52.672Z,6.91
2019-04-12T01:18:45.577Z,6.97
2019-04-12T01:19:45.575Z,6.97
2019-04-12T01:21:38.476Z,6.99
2019-04-12T01:22:39.133Z,6.97
2019-04-12T01:24:31.382Z,6.85
2019-04-12T01:25:31.384Z,6.84
2019-04-12T01:27:24.284Z,6.84
2019-04-12T01:28:24.290Z,6.89
2019-04-12T01:30:17.192Z,6.88
2019-04-12T01:31:17.193Z,6.71
2019-04-12T01:33:10.114Z,6.76
2019-04-12T01:34:10.098Z,6.77
2019-04-12T01:36:03.498Z,6.85
2019-04-12T01:37:03.508Z,6.77
2019-04-12T01:38:56.411Z,6.87
2019-04-12T01:39:56.411Z,6.80
2019-04-12T01:41:49.309Z,6.70
2019-04-12T01:42:49.315Z,6.67
2019-04-12T01:44:42.218Z,6.61
2019-04-12T01:45:42.220Z,6.66
2019-04-12T01:47:35.118Z,6.64
2019-04-12T01:48:35.123Z,6.85
2019-04-12T01:50:28.025Z,6.77
2019-04-12T01:51:28.028Z,6.77
2019-04-12T01:53:20.925Z,6.74
2019-04-12T01:54:20.932Z,6.67
2019-04-12T01:56:13.854Z,6.61
2019-04-12T01:57:13.836Z,6.69
2019-04-12T01:59:06.741Z,6.66
2019-04-12T02:00:06.737Z,6.70
2019-04-12T02:01:59.645Z,6.66
2019-04-12T02:02:59.655Z,6.64
2019-04-12T02:04:52.554Z,6.70
2019-04-12T02:05:52.556Z,6.73
2019-04-12T02:07:45.462Z,6.71
2019-04-12T02:08:45.469Z,6.66
2019-04-12T02:10:38.369Z,6.67
2019-04-12T02:11:38.370Z,6.67
2019-04-12T02:13:31.267Z,6.76
2019-04-12T02:14:31.275Z,6.76
2019-04-12T02:16:24.177Z,6.73
2019-04-12T02:17:24.179Z,6.77
2019-04-12T02:19:17.081Z,6.81
2019-04-12T02:20:17.082Z,6.74
2019-04-12T02:22:09.978Z,6.69
2019-04-12T02:23:09.986Z,6.64
2019-04-12T02:25:02.889Z,6.71
2019-04-12T02:26:02.896Z,6.70
2019-04-12T02:27:55.794Z,6.69
2019-04-12T02:28:55.794Z,6.66
2019-04-12T02:30:48.703Z,6.62
2019-04-12T02:31:48.708Z,6.54
2019-04-12T02:33:41.600Z,6.61
2019-04-12T02:34:41.605Z,6.66
2019-04-12T02:36:34.510Z,6.58
2019-04-12T02:37:34.507Z,6.67
2019-04-12T02:39:27.406Z,6.59
2019-04-12T02:40:27.407Z,6.64
2019-04-12T02:42:20.303Z,6.59
2019-04-12T02:43:20.313Z,6.52
2019-04-12T02:45:13.218Z,6.59
2019-04-12T02:46:13.218Z,6.49
2019-04-12T02:48:06.117Z,6.56
2019-04-12T02:49:06.132Z,6.59
2019-04-12T02:50:59.023Z,6.56
2019-04-12T02:51:59.032Z,6.62
2019-04-12T02:53:51.931Z,6.64
2019-04-12T02:54:51.931Z,6.67
2019-04-12T02:56:44.836Z,6.62
2019-04-12T02:57:44.832Z,6.61
2019-04-12T02:59:37.734Z,6.51
2019-04-12T03:00:37.799Z,6.55
2019-04-12T03:02:30.631Z,6.48
2019-04-12T03:03:30.638Z,6.49
2019-04-12T03:05:23.538Z,6.48
2019-04-12T03:06:23.542Z,6.52
2019-04-12T03:08:16.434Z,6.51
2019-04-12T03:09:16.463Z,6.46
2019-04-12T03:11:09.344Z,6.43
2019-04-12T03:12:09.354Z,6.36
2019-04-12T03:14:02.241Z,6.43
2019-04-12T03:15:02.247Z,6.37
2019-04-12T03:16:55.151Z,6.27
2019-04-12T03:17:55.153Z,6.27
2019-04-12T03:19:48.053Z,6.19
2019-04-12T03:20:48.054Z,6.19
2019-04-12T03:22:40.951Z,6.18
2019-04-12T03:23:40.963Z,6.28
2019-04-12T03:25:33.860Z,6.34
2019-04-12T03:26:33.865Z,6.36
2019-04-12T03:28:26.759Z,6.31
2019-04-12T03:29:26.775Z,6.40
2019-04-12T03:31:19.672Z,6.36
2019-04-12T03:32:19.681Z,6.33
2019-04-12T03:34:12.570Z,6.43
2019-04-12T03:35:12.581Z,6.30
2019-04-12T03:37:05.510Z,6.41
2019-04-12T03:38:05.486Z,6.34
2019-04-12T03:39:58.397Z,6.43
2019-04-12T03:40:58.395Z,6.34
2019-04-12T03:42:51.300Z,6.41
2019-04-12T03:43:51.302Z,6.43
2019-04-12T03:45:44.205Z,6.37
2019-04-12T03:46:44.213Z,6.43
2019-04-12T03:48:37.111Z,6.33
2019-04-12T03:49:37.111Z,6.36
2019-04-12T03:51:30.021Z,6.43
2019-04-12T03:52:30.032Z,6.30
2019-04-12T03:54:22.913Z,6.25
2019-04-12T03:55:22.918Z,6.37
2019-04-12T03:57:15.825Z,6.33
2019-04-12T03:58:15.820Z,6.33
2019-04-12T04:00:08.724Z,6.19
2019-04-12T04:01:08.727Z,6.22
2019-04-12T04:03:01.619Z,6.09
2019-04-12T04:04:01.626Z,6.09
2019-04-12T04:05:54.530Z,6.11
2019-04-12T04:06:54.545Z,6.18
2019-04-12T04:08:47.426Z,6.09
2019-04-12T04:09:47.432Z,6.22
2019-04-12T04:11:40.336Z,6.18
2019-04-12T04:12:40.337Z,6.12
2019-04-12T04:14:33.235Z,6.09
2019-04-12T04:15:33.244Z,6.14
2019-04-12T04:17:26.142Z,6.19
2019-04-12T04:18:26.151Z,6.04
2019-04-12T04:20:20.494Z,6.09
2019-04-12T04:21:19.048Z,5.99
2019-04-12T04:23:11.943Z,5.93
2019-04-12T04:24:11.949Z,5.97
2019-04-12T04:26:04.847Z,5.89
2019-04-12T04:27:04.854Z,5.85
2019-04-12T04:28:57.747Z,5.90
2019-04-12T04:29:57.756Z,5.86
2019-04-12T04:31:50.661Z,5.72
2019-04-12T04:32:50.659Z,5.83
2019-04-12T04:34:43.556Z,5.78
2019-04-12T04:35:43.562Z,5.75
2019-04-12T04:37:36.500Z,5.74
2019-04-12T04:38:36.464Z,5.72
2019-04-12T04:40:29.359Z,5.68
2019-04-12T04:41:29.365Z,5.72
2019-04-12T04:43:22.271Z,5.74
2019-04-12T04:44:22.270Z,5.72
2019-04-12T04:46:15.172Z,5.76
2019-04-12T04:47:15.173Z,5.68
2019-04-12T04:49:08.066Z,5.71
2019-04-12T04:50:08.096Z,5.75
2019-04-12T04:52:01.492Z,5.75
2019-04-12T04:53:01.481Z,5.74
2019-04-12T04:54:54.377Z,5.79
2019-04-12T04:55:54.384Z,5.72
2019-04-12T04:57:47.791Z,5.74
2019-04-12T04:58:47.781Z,5.76
2019-04-12T05:00:40.675Z,5.72
2019-04-12T05:01:40.684Z,5.63
2019-04-12T05:03:33.588Z,5.68
2019-04-12T05:04:33.590Z,5.65
2019-04-12T05:06:26.490Z,5.60
2019-04-12T05:07:26.491Z,5.67
2019-04-12T05:09:19.383Z,5.68
2019-04-12T05:10:19.390Z,5.63
2019-04-12T05:12:12.292Z,5.74
2019-04-12T05:13:12.301Z,5.72
2019-04-12T05:15:05.188Z,5.76
2019-04-12T05:16:05.194Z,5.75
2019-04-12T05:17:58.094Z,5.72
2019-04-12T05:18:58.095Z,5.72
2019-04-12T05:20:50.988Z,5.71
2019-04-12T05:21:50.996Z,5.72
2019-04-12T05:23:43.898Z,5.72
2019-04-12T05:24:43.899Z,5.74
2019-04-12T05:26:45.130Z,5.64
2019-04-12T05:27:36.793Z,5.68
2019-04-12T05:29:29.697Z,5.72
2019-04-12T05:30:29.703Z,5.82
2019-04-12T05:32:22.607Z,5.72
2019-04-12T05:33:22.611Z,5.75
2019-04-12T05:35:15.505Z,5.78
2019-04-12T05:36:15.511Z,5.78
2019-04-12T05:38:08.411Z,5.71
2019-04-12T05:39:08.412Z,5.75
2019-04-12T05:41:01.310Z,5.58
2019-04-12T05:42:01.315Z,5.64
2019-04-12T05:43:54.214Z,5.72
2019-04-12T05:44:54.214Z,5.60
2019-04-12T05:46:47.118Z,5.68
2019-04-12T05:47:47.118Z,5.56
2019-04-12T05:49:40.014Z,5.76
2019-04-12T05:50:40.020Z,5.75
2019-04-12T05:52:32.922Z,5.72
2019-04-12T05:53:32.926Z,5.79
2019-04-12T05:55:25.823Z,5.78
2019-04-12T05:56:25.828Z,5.74
2019-04-12T05:58:18.730Z,5.82
2019-04-12T05:59:18.731Z,5.75
2019-04-12T06:01:11.622Z,5.82
2019-04-12T06:02:11.630Z,5.78
2019-04-12T06:04:04.535Z,5.79
2019-04-12T06:05:04.532Z,5.85
2019-04-12T06:06:58.577Z,5.82
2019-04-12T06:07:57.438Z,5.79
2019-04-12T06:09:50.336Z,5.83
2019-04-12T06:10:50.341Z,5.82
2019-04-12T06:12:43.241Z,5.90
2019-04-12T06:13:43.247Z,5.90
2019-04-12T06:15:36.144Z,5.91
2019-04-12T06:16:36.162Z,5.83
2019-04-12T06:18:29.051Z,5.93
2019-04-12T06:19:29.063Z,5.99
2019-04-12T06:21:21.952Z,5.94
2019-04-12T06:22:21.957Z,5.94
2019-04-12T06:24:14.860Z,5.94
2019-04-12T06:25:14.861Z,5.89
2019-04-12T06:27:10.102Z,5.97
2019-04-12T06:28:07.764Z,5.99
2019-04-12T06:30:00.659Z,6.11
2019-04-12T06:31:00.668Z,6.11
2019-04-12T06:32:53.572Z,6.15
2019-04-12T06:33:53.570Z,6.09
2019-04-12T06:35:46.470Z,6.15
2019-04-12T06:36:46.474Z,6.12
2019-04-12T06:38:39.379Z,6.04
2019-04-12T06:39:39.379Z,6.14
2019-04-12T06:41:32.277Z,6.15
2019-04-12T06:42:32.284Z,6.17
2019-04-12T06:44:25.184Z,6.19
2019-04-12T06:45:25.186Z,6.17
2019-04-12T06:47:18.105Z,6.15
2019-04-12T06:48:18.109Z,6.22
2019-04-12T06:50:11.005Z,6.28
2019-04-12T06:51:11.011Z,6.34
2019-04-12T06:53:03.915Z,6.31
2019-04-12T06:54:03.916Z,6.33
2019-04-12T06:55:56.814Z,6.31
2019-04-12T06:56:56.822Z,6.28
2019-04-12T06:58:49.722Z,6.37
2019-04-12T06:59:49.724Z,6.51
2019-04-12T07:01:42.626Z,6.49
2019-04-12T07:02:42.631Z,6.62
2019-04-12T07:04:35.532Z,6.70
2019-04-12T07:05:35.534Z,6.71
2019-04-12T07:07:28.438Z,6.79
2019-04-12T07:08:28.440Z,6.61
2019-04-12T07:10:21.337Z,6.54
2019-04-12T07:11:21.346Z,6.48
2019-04-12T07:13:14.742Z,6.67
2019-04-12T07:14:14.745Z,6.61
2019-04-12T07:16:07.639Z,6.70
2019-04-12T07:17:07.649Z,6.85
2019-04-12T07:19:00.554Z,6.87
2019-04-12T07:20:00.563Z,6.98
2019-04-12T07:21:53.452Z,6.98
2019-04-12T07:22:53.459Z,6.91
2019-04-12T07:24:46.364Z,7.09
2019-04-12T07:25:46.368Z,7.03
2019-04-12T07:27:39.276Z,7.16
2019-04-12T07:28:39.276Z,7.25
2019-04-12T07:30:32.174Z,7.30
2019-04-12T07:31:32.185Z,7.31
2019-04-12T07:33:25.088Z,7.25
2019-04-12T07:34:25.093Z,7.23
2019-04-12T07:36:17.994Z,7.30
2019-04-12T07:37:17.999Z,7.43
2019-04-12T07:39:10.906Z,7.40
2019-04-12T07:40:10.908Z,7.37
2019-04-12T07:42:04.302Z,7.40
2019-04-12T07:43:04.319Z,7.23
2019-04-12T07:44:57.218Z,7.17
2019-04-12T07:45:57.220Z,7.25
2019-04-12T07:47:50.128Z,7.46
2019-04-12T07:48:50.136Z,7.53
2019-04-12T07:50:43.031Z,7.45
2019-04-12T07:51:43.041Z,7.35
2019-04-12T07:53:35.951Z,7.21
2019-04-12T07:54:38.019Z,7.28
2019-04-12T07:56:29.015Z,7.35
2019-04-12T07:57:28.860Z,7.46
2019-04-12T07:59:21.774Z,7.50
2019-04-12T08:00:21.769Z,7.67
2019-04-12T08:02:14.669Z,7.61
2019-04-12T08:03:14.678Z,7.64
2019-04-12T08:05:07.583Z,7.68
2019-04-12T08:06:07.732Z,7.77
2019-04-12T08:08:00.494Z,7.71
2019-04-12T08:09:00.497Z,7.75
2019-04-12T08:10:53.392Z,7.90
2019-04-12T08:11:53.405Z,7.95
2019-04-12T08:13:46.312Z,8.00
2019-04-12T08:14:46.312Z,8.05
2019-04-12T08:16:39.213Z,7.95
2019-04-12T08:17:39.222Z,7.71
2019-04-12T08:19:32.128Z,7.53
2019-04-12T08:20:32.132Z,7.43
2019-04-12T08:22:25.030Z,7.16
2019-04-12T08:23:25.068Z,7.07
2019-04-12T08:25:17.942Z,7.06
2019-04-12T08:26:17.947Z,7.09
2019-04-12T08:28:10.853Z,7.12
2019-04-12T08:29:10.854Z,7.03
2019-04-12T08:31:03.752Z,7.06
2019-04-12T08:32:03.760Z,7.12
2019-04-12T08:33:56.662Z,7.12
2019-04-12T08:34:56.669Z,7.13
2019-04-12T08:36:49.565Z,7.23
2019-04-12T08:37:49.575Z,7.24
2019-04-12T08:39:42.522Z,7.25
2019-04-12T08:40:42.480Z,7.23
2019-04-12T08:42:36.185Z,7.28
2019-04-12T08:43:35.388Z,7.24
2019-04-12T08:45:28.295Z,7.27
2019-04-12T08:46:28.298Z,7.12
2019-04-12T08:48:21.205Z,7.27
2019-04-12T08:49:21.226Z,7.42
2019-04-12T08:51:22.572Z,7.39
2019-04-12T08:52:14.133Z,7.30
2019-04-12T08:54:07.056Z,7.49
2019-04-12T08:55:07.085Z,7.45
2019-04-12T08:56:59.933Z,7.48
2019-04-12T08:58:10.304Z,7.50
2019-04-12T08:59:52.861Z,7.60
2019-04-12T09:00:52.884Z,7.60
2019-04-12T09:02:45.767Z,7.53
2019-04-12T09:03:45.826Z,7.49
2019-04-12T09:05:40.710Z,7.34
2019-04-12T09:06:38.667Z,7.37
2019-04-12T09:08:31.601Z,7.30
2019-04-12T09:09:31.653Z,7.34
2019-04-12T09:11:24.520Z,7.49
2019-04-12T09:12:24.498Z,7.46
2019-04-12T09:14:17.418Z,7.53
2019-04-12T09:15:17.433Z,7.50
2019-04-12T09:17:10.295Z,7.53
2019-04-12T09:18:10.329Z,7.50
2019-04-12T09:20:03.207Z,7.60
2019-04-12T09:21:03.216Z,7.79
2019-04-12T09:22:56.144Z,7.89
2019-04-12T09:23:56.154Z,8.02
2019-04-12T09:25:49.074Z,8.04
2019-04-12T09:26:49.023Z,8.07
2019-04-12T09:28:41.916Z,8.04
2019-04-12T09:29:41.932Z,7.89
2019-04-12T09:31:34.875Z,7.80
2019-04-12T09:32:34.843Z,7.86
2019-04-12T09:34:27.738Z,7.86
2019-04-12T09:35:27.733Z,7.95
2019-04-12T09:37:20.632Z,7.98
2019-04-12T09:38:20.642Z,7.98
2019-04-12T09:40:13.547Z,7.90
2019-04-12T09:41:13.555Z,7.95
2019-04-12T09:43:06.449Z,7.85
2019-04-12T09:44:06.459Z,7.69
2019-04-12T09:45:59.366Z,7.69
2019-04-12T09:46:59.368Z,7.74
2019-04-12T09:48:52.270Z,7.69
2019-04-12T09:49:52.277Z,7.67
2019-04-12T09:51:45.183Z,7.93
2019-04-12T09:52:45.188Z,7.72
2019-04-12T09:54:38.088Z,7.82
2019-04-12T09:55:38.094Z,7.71
2019-04-12T09:57:30.993Z,7.82
2019-04-12T09:58:37.095Z,7.97
2019-04-12T10:00:23.908Z,7.97
2019-04-12T10:01:23.964Z,7.71
2019-04-12T10:03:16.810Z,7.68
2019-04-12T10:04:16.820Z,7.72
2019-04-12T10:06:09.728Z,7.63
2019-04-12T10:07:09.730Z,7.68
2019-04-12T10:09:02.630Z,7.50
2019-04-12T10:10:02.640Z,7.48
2019-04-12T10:11:55.548Z,7.55
2019-04-12T10:12:55.548Z,7.61
2019-04-12T10:14:48.453Z,7.64
2019-04-12T10:15:48.457Z,7.67
2019-04-12T10:17:41.355Z,7.63
2019-04-12T10:18:41.369Z,7.72
2019-04-12T10:20:34.271Z,7.61
2019-04-12T10:21:34.275Z,7.68
2019-04-12T10:23:27.170Z,7.53
2019-04-12T10:24:27.182Z,7.43
2019-04-12T10:26:20.091Z,7.52
2019-04-12T10:27:20.091Z,7.48
2019-04-12T10:29:12.990Z,7.71
2019-04-12T10:30:12.998Z,7.80
2019-04-12T10:32:05.917Z,7.89
2019-04-12T10:33:05.915Z,7.95
2019-04-12T10:35:01.181Z,8.04
2019-04-12T10:35:58.825Z,8.05
2019-04-12T10:37:51.725Z,8.19
2019-04-12T10:38:51.735Z,8.20
2019-04-12T10:40:44.646Z,8.20
2019-04-12T10:41:44.645Z,8.20
2019-04-12T10:43:37.545Z,8.48
2019-04-12T10:44:37.555Z,8.50
2019-04-12T10:46:30.465Z,8.74
2019-04-12T10:47:30.467Z,8.71
2019-04-12T10:49:23.367Z,8.70
2019-04-12T10:50:23.379Z,8.53
2019-04-12T10:52:16.309Z,8.48
2019-04-12T10:53:16.287Z,8.53
2019-04-12T10:55:09.199Z,8.44
2019-04-12T10:56:09.204Z,8.44
2019-04-12T10:58:02.107Z,8.33
2019-04-12T10:59:03.163Z,8.28
2019-04-12T11:00:55.022Z,8.30
2019-04-12T11:01:55.026Z,8.20
2019-04-12T11:03:47.928Z,8.16
2019-04-12T11:04:47.938Z,8.07
2019-04-12T11:06:40.848Z,8.05
2019-04-12T11:07:40.849Z,8.12
2019-04-12T11:09:33.747Z,8.30
2019-04-12T11:10:33.757Z,8.41
2019-04-12T11:12:26.664Z,8.47
2019-04-12T11:13:26.670Z,8.48
2019-04-12T11:15:21.799Z,8.48
2019-04-12T11:16:19.581Z,8.50
2019-04-12T11:18:12.479Z,8.55
2019-04-12T11:19:12.490Z,8.63
2019-04-12T11:21:05.404Z,8.62
2019-04-12T11:22:05.404Z,8.53
2019-04-12T11:23:58.306Z,8.47
2019-04-12T11:24:58.317Z,8.38
2019-04-12T11:26:51.225Z,8.40
2019-04-12T11:27:51.228Z,8.48
2019-04-12T11:29:44.129Z,8.53
2019-04-12T11:30:44.138Z,8.55
2019-04-12T11:32:37.042Z,8.33
2019-04-12T11:33:37.048Z,8.19
2019-04-12T11:35:29.970Z,8.15
2019-04-12T11:36:29.967Z,8.07
2019-04-12T11:38:22.871Z,7.85
2019-04-12T11:39:22.878Z,7.80
2019-04-12T11:41:15.786Z,7.72
2019-04-12T11:42:15.788Z,7.64
2019-04-12T11:44:08.689Z,7.64
2019-04-12T11:45:08.699Z,7.67
2019-04-12T11:47:01.604Z,7.60
2019-04-12T11:48:01.608Z,7.75
2019-04-12T11:49:54.508Z,7.85
2019-04-12T11:50:54.517Z,7.98
2019-04-12T11:52:47.422Z,8.00
2019-04-12T11:53:47.425Z,8.08
2019-04-12T11:55:40.332Z,8.07
2019-04-12T11:56:40.334Z,8.18
2019-04-12T11:58:47.323Z,8.19
2019-04-12T11:59:33.245Z,8.19
2019-04-12T12:01:26.148Z,8.22
2019-04-12T12:02:26.152Z,8.20
2019-04-12T12:04:19.061Z,8.16
2019-04-12T12:05:19.061Z,8.08
2019-04-12T12:07:11.966Z,8.00
2019-04-12T12:08:11.971Z,8.04
2019-04-12T12:10:04.868Z,8.08
2019-04-12T12:11:04.877Z,8.10
2019-04-12T12:12:57.783Z,7.93
2019-04-12T12:13:57.788Z,8.00
2019-04-12T12:15:50.696Z,7.89
2019-04-12T12:16:50.699Z,7.79
2019-04-12T12:18:44.091Z,7.75
2019-04-12T12:19:44.103Z,7.77
2019-04-12T12:21:37.009Z,7.95
2019-04-12T12:22:37.013Z,8.04
2019-04-12T12:24:29.913Z,8.04
2019-04-12T12:25:29.923Z,7.95
2019-04-12T12:27:22.832Z,8.04
2019-04-12T12:28:22.835Z,8.15
2019-04-12T12:30:15.734Z,8.37
2019-04-12T12:31:15.745Z,8.34
2019-04-12T12:33:08.650Z,8.22
2019-04-12T12:34:08.655Z,8.33
2019-04-12T12:36:01.563Z,8.30
2019-04-12T12:37:01.568Z,8.36
2019-04-12T12:38:54.472Z,8.58
2019-04-12T12:39:54.476Z,8.70
2019-04-12T12:41:47.389Z,8.68
2019-04-12T12:42:47.388Z,8.66
2019-04-12T12:44:40.293Z,8.63
2019-04-12T12:45:40.302Z,8.65
2019-04-12T12:47:33.211Z,8.58
2019-04-12T12:48:33.214Z,8.55
2019-04-12T12:50:26.121Z,8.33
2019-04-12T12:51:26.127Z,8.52
2019-04-12T12:53:19.033Z,8.50
2019-04-12T12:54:19.039Z,8.65
2019-04-12T12:56:11.945Z,8.95
2019-04-12T12:57:11.950Z,8.71
2019-04-12T12:59:05.348Z,8.63
2019-04-12T13:00:05.356Z,8.70
2019-04-12T13:01:58.265Z,8.80
2019-04-12T13:02:58.267Z,8.80
2019-04-12T13:04:51.169Z,9.01
2019-04-12T13:05:51.177Z,8.96
2019-04-12T13:07:44.089Z,9.01
2019-04-12T13:08:44.094Z,9.13
2019-04-12T13:10:36.993Z,9.29
2019-04-12T13:11:37.002Z,9.38
2019-04-12T13:13:29.911Z,9.43
2019-04-12T13:14:29.921Z,9.39
2019-04-12T13:16:23.021Z,9.28
2019-04-12T13:17:23.032Z,9.20
2019-04-12T13:19:15.928Z,9.24
2019-04-12T13:20:15.938Z,9.36
2019-04-12T13:22:08.847Z,9.38
2019-04-12T13:23:08.852Z,9.42
2019-04-12T13:25:01.756Z,9.28
2019-04-12T13:26:01.767Z,9.14
2019-04-12T13:27:54.675Z,9.18
2019-04-12T13:28:54.679Z,8.99
2019-04-12T13:30:47.582Z,8.81
2019-04-12T13:31:47.632Z,8.81
2019-04-12T13:33:40.498Z,8.91
2019-04-12T13:34:40.501Z,8.87
2019-04-12T13:36:33.410Z,8.96
2019-04-12T13:37:33.415Z,8.96
2019-04-12T13:39:26.315Z,9.08
2019-04-12T13:40:26.327Z,8.95
2019-04-12T13:42:19.233Z,8.68
2019-04-12T13:43:19.237Z,8.81
2019-04-12T13:45:12.138Z,8.96
2019-04-12T13:46:12.149Z,8.91
2019-04-12T13:48:05.059Z,8.94
2019-04-12T13:49:05.063Z,9.02
2019-04-12T13:50:57.964Z,8.79
2019-04-12T13:51:57.975Z,8.77
2019-04-12T13:53:50.883Z,8.92
2019-04-12T13:54:50.887Z,8.86
2019-04-12T13:56:43.793Z,8.63
2019-04-12T13:57:43.797Z,8.68
2019-04-12T13:59:37.631Z,8.68
2019-04-12T14:00:36.708Z,8.71
2019-04-12T14:02:29.615Z,8.77
2019-04-12T14:03:29.620Z,8.87
2019-04-12T14:05:22.521Z,8.94
2019-04-12T14:06:22.534Z,8.74
2019-04-12T14:08:15.526Z,8.68
2019-04-12T14:09:15.441Z,8.58
2019-04-12T14:11:08.343Z,8.65
2019-04-12T14:12:08.355Z,8.55
2019-04-12T14:14:01.257Z,8.55
2019-04-12T14:15:01.261Z,8.55
2019-04-12T14:16:54.166Z,8.53
2019-04-12T14:17:54.168Z,8.48
2019-04-12T14:19:47.068Z,8.37
2019-04-12T14:20:47.078Z,8.33
2019-04-12T14:22:39.982Z,8.33
2019-04-12T14:23:39.985Z,8.33
2019-04-12T14:25:32.882Z,8.20
2019-04-12T14:26:32.900Z,8.23
2019-04-12T14:28:30.893Z,8.20
2019-04-12T14:29:25.817Z,8.23
2019-04-12T14:31:18.701Z,8.18
2019-04-12T14:32:18.708Z,8.29
2019-04-12T14:34:13.811Z,8.37
2019-04-12T14:35:11.615Z,8.43
2019-04-12T14:37:04.532Z,8.45
2019-04-12T14:38:04.531Z,8.48
2019-04-12T14:39:57.438Z,8.47
2019-04-12T14:40:57.435Z,8.38
2019-04-12T14:42:50.341Z,8.43
2019-04-12T14:43:50.344Z,8.50
2019-04-12T14:45:43.269Z,8.65
2019-04-12T14:46:43.252Z,8.66
2019-04-12T14:48:36.158Z,8.55
2019-04-12T14:49:36.158Z,8.50
2019-04-12T14:51:29.082Z,8.48
2019-04-12T14:52:29.069Z,8.50
2019-04-12T14:54:21.976Z,8.50
2019-04-12T14:55:21.981Z,8.47
2019-04-12T14:57:14.884Z,8.36
2019-04-12T14:58:14.888Z,8.36
2019-04-12T15:00:08.320Z,8.33
2019-04-12T15:01:10.401Z,8.45
2019-04-12T15:03:01.266Z,8.45
2019-04-12T15:04:01.200Z,8.47
2019-04-12T15:05:54.102Z,8.48
2019-04-12T15:06:54.109Z,8.55
2019-04-12T15:08:47.013Z,8.53
2019-04-12T15:09:47.016Z,8.50
2019-04-12T15:11:39.915Z,8.52
2019-04-12T15:12:39.923Z,8.53
2019-04-12T15:14:32.832Z,8.41
2019-04-12T15:15:32.834Z,8.41
2019-04-12T15:17:25.741Z,8.47
2019-04-12T15:18:25.744Z,8.55
2019-04-12T15:20:18.645Z,8.37
2019-04-12T15:21:18.775Z,8.33
2019-04-12T15:23:11.666Z,8.25
2019-04-12T15:24:11.589Z,8.23
2019-04-12T15:26:04.487Z,8.10
2019-04-12T15:27:04.496Z,7.97
2019-04-12T15:28:57.488Z,7.89
2019-04-12T15:29:57.399Z,7.97
2019-04-12T15:31:50.309Z,8.01
2019-04-12T15:32:50.320Z,8.10
2019-04-12T15:34:43.228Z,8.04
2019-04-12T15:35:43.228Z,8.05
2019-04-12T15:37:36.133Z,8.19
2019-04-12T15:38:36.138Z,8.08
2019-04-12T15:40:29.038Z,8.08
2019-04-12T15:41:29.044Z,8.04
2019-04-12T15:43:21.951Z,7.93
2019-04-12T15:44:21.954Z,7.93
2019-04-12T15:46:14.854Z,7.89
2019-04-12T15:47:14.862Z,7.71
2019-04-12T15:49:07.770Z,7.63
2019-04-12T15:50:07.770Z,7.48
2019-04-12T15:52:00.673Z,7.43
2019-04-12T15:53:00.681Z,7.34
2019-04-12T15:54:53.587Z,7.39
2019-04-12T15:55:53.590Z,7.35
2019-04-12T15:57:46.494Z,7.43
2019-04-12T15:58:46.496Z,7.45
2019-04-12T16:00:39.398Z,7.53
2019-04-12T16:01:39.404Z,7.60
2019-04-12T16:03:32.312Z,7.83
2019-04-12T16:04:32.382Z,7.82
2019-04-12T16:06:25.240Z,7.92
2019-04-12T16:07:25.221Z,7.93
2019-04-12T16:09:18.128Z,8.07
2019-04-12T16:10:18.129Z,8.01
2019-04-12T16:12:11.031Z,8.02
2019-04-12T16:13:11.036Z,7.90
2019-04-12T16:15:03.946Z,8.01
2019-04-12T16:16:03.945Z,8.08
2019-04-12T16:17:56.869Z,8.18
2019-04-12T16:18:56.873Z,8.08
2019-04-12T16:20:49.752Z,8.08
2019-04-12T16:21:49.760Z,8.08
2019-04-12T16:23:42.662Z,7.93
2019-04-12T16:24:42.667Z,7.87
2019-04-12T16:26:35.566Z,7.92
2019-04-12T16:27:35.576Z,7.89
2019-04-12T16:29:28.479Z,7.89
2019-04-12T16:30:28.482Z,7.95
2019-04-12T16:32:21.380Z,7.83
2019-04-12T16:33:21.390Z,7.69
2019-04-12T16:35:14.296Z,7.69
2019-04-12T16:36:14.299Z,7.72
2019-04-12T16:38:07.225Z,7.58
2019-04-12T16:39:07.420Z,7.61
2019-04-12T16:41:00.218Z,7.72
2019-04-12T16:42:00.114Z,7.69
2019-04-12T16:43:53.021Z,7.64
2019-04-12T16:44:53.021Z,7.63
2019-04-12T16:46:45.921Z,7.49
2019-04-12T16:47:45.931Z,7.53
2019-04-12T16:49:38.838Z,7.48
2019-04-12T16:50:38.850Z,7.48
2019-04-12T16:52:31.749Z,7.48
2019-04-12T16:53:31.749Z,7.52
2019-04-12T16:55:24.653Z,7.61
2019-04-12T16:56:24.658Z,7.67
2019-04-12T16:58:17.578Z,7.77
2019-04-12T16:59:17.604Z,7.75
2019-04-12T17:01:10.496Z,7.83
2019-04-12T17:02:10.515Z,7.86
2019-04-12T17:04:03.409Z,7.72
2019-04-12T17:05:03.412Z,7.71
2019-04-12T17:06:56.313Z,7.64
2019-04-12T17:07:56.350Z,7.64
2019-04-12T17:09:49.230Z,7.58
2019-04-12T17:10:49.230Z,7.50
2019-04-12T17:12:42.128Z,7.49
2019-04-12T17:13:42.137Z,7.52
2019-04-12T17:15:35.042Z,7.49
2019-04-12T17:16:35.046Z,7.49
2019-04-12T17:18:27.947Z,7.63
2019-04-12T17:19:27.951Z,7.61
2019-04-12T17:21:20.841Z,7.48
2019-04-12T17:22:20.857Z,7.52
2019-04-12T17:24:13.759Z,7.46
2019-04-12T17:25:13.762Z,7.43
2019-04-12T17:27:06.692Z,7.45
2019-04-12T17:28:06.673Z,7.34
2019-04-12T17:29:59.573Z,7.37
2019-04-12T17:30:59.574Z,7.39
2019-04-12T17:32:52.473Z,7.32
2019-04-12T17:33:52.483Z,7.31
2019-04-12T17:35:48.454Z,7.28
2019-04-12T17:36:45.387Z,7.24
2019-04-12T17:38:38.293Z,7.23
2019-04-12T17:39:38.293Z,7.12
2019-04-12T17:41:31.193Z,7.20
2019-04-12T17:42:31.198Z,7.15
2019-04-12T17:44:24.103Z,7.09
2019-04-12T17:45:24.105Z,7.06
2019-04-12T17:47:17.002Z,6.99
2019-04-12T17:48:17.009Z,6.97
2019-04-12T17:50:09.929Z,6.95
2019-04-12T17:51:09.917Z,7.06
2019-04-12T17:53:02.810Z,7.07
2019-04-12T17:54:02.818Z,7.03
2019-04-12T17:55:55.733Z,7.09
2019-04-12T17:56:55.724Z,7.13
2019-04-12T17:58:48.627Z,7.13
2019-04-12T17:59:48.634Z,7.05
2019-04-12T18:01:41.526Z,6.91
2019-04-12T18:02:41.536Z,7.03
2019-04-12T18:04:34.439Z,6.92
2019-04-12T18:05:34.441Z,6.77
2019-04-12T18:07:27.338Z,6.67
2019-04-12T18:08:27.347Z,6.69
2019-04-12T18:10:20.260Z,6.62
2019-04-12T18:11:20.252Z,6.59
2019-04-12T18:13:13.146Z,6.55
2019-04-12T18:14:13.157Z,6.55
2019-04-12T18:16:06.552Z,6.51
2019-04-12T18:17:06.575Z,6.46
2019-04-12T18:18:59.456Z,6.59
2019-04-12T18:19:59.459Z,6.58
2019-04-12T18:21:52.363Z,6.49
2019-04-12T18:22:52.371Z,6.33
2019-04-12T18:24:45.275Z,5.94
2019-04-12T18:25:45.276Z,5.85
2019-04-12T18:27:38.174Z,5.49
2019-04-12T18:28:38.187Z,5.49
2019-04-12T18:30:31.115Z,5.20
2019-04-12T18:31:31.097Z,5.15
2019-04-12T18:33:24.012Z,5.07
2019-04-12T18:34:24.040Z,5.04
2019-04-12T18:36:16.934Z,5.00
2019-04-12T18:37:16.943Z,4.99
2019-04-12T18:39:09.838Z,5.04
2019-04-12T18:40:09.839Z,5.00
2019-04-12T18:42:02.737Z,5.10
2019-04-12T18:43:02.747Z,5.06
2019-04-12T18:44:55.668Z,5.04
2019-04-12T18:45:55.728Z,5.10
2019-04-12T18:47:48.535Z,5.10
2019-04-12T18:48:48.549Z,5.18
2019-04-12T18:50:41.449Z,5.24
2019-04-12T18:51:41.451Z,5.21
2019-04-12T18:53:34.347Z,5.20
2019-04-12T18:54:34.353Z,5.35
2019-04-12T18:56:27.256Z,5.22
2019-04-12T18:57:27.256Z,5.22
2019-04-12T18:59:20.652Z,5.22
2019-04-12T19:00:20.653Z,5.22
2019-04-12T19:02:13.596Z,5.24
2019-04-12T19:03:13.555Z,5.30
2019-04-12T19:05:06.457Z,5.33
2019-04-12T19:06:14.163Z,5.28
2019-04-12T19:07:59.355Z,5.31
2019-04-12T19:08:59.411Z,5.31
2019-04-12T19:10:52.261Z,5.40